createdAt,value
2019-02-10T00:00:43.014Z,92.60
2019-02-10T00:03:10.545Z,92.70
2019-02-10T00:05:38.076Z,92.70
2019-02-10T00:08:05.664Z,92.70
2019-02-10T00:10:33.301Z,92.70
2019-02-10T00:13:30.490Z,92.70
2019-02-10T00:15:58.723Z,92.70
2019-02-10T00:18:26.241Z,92.60
2019-02-10T00:20:53.987Z,92.60
2019-02-10T00:23:21.692Z,92.60
2019-02-10T00:25:49.411Z,92.70
2019-02-10T00:28:17.171Z,92.60
2019-02-10T00:30:44.723Z,92.70
2019-02-10T00:33:12.235Z,92.90
2019-02-10T00:35:39.754Z,93.00
2019-02-10T00:38:07.329Z,92.90
2019-02-10T00:40:34.846Z,93.00
2019-02-10T00:43:02.332Z,93.00
2019-02-10T00:45:29.892Z,92.80
2019-02-10T00:47:57.432Z,92.90
2019-02-10T00:50:24.956Z,92.70
2019-02-10T00:52:52.458Z,92.70
2019-02-10T00:55:19.973Z,93.00
2019-02-10T00:57:47.490Z,92.80
2019-02-10T01:00:15.312Z,92.80
2019-02-10T01:02:42.868Z,92.90
2019-02-10T01:05:10.468Z,93.10
2019-02-10T01:07:37.972Z,93.00
2019-02-10T01:10:05.544Z,93.10
2019-02-10T01:12:33.083Z,92.90
2019-02-10T01:15:00.578Z,92.90
2019-02-10T01:17:28.068Z,92.70
2019-02-10T01:19:55.570Z,92.70
2019-02-10T01:22:25.312Z,93.00
2019-02-10T01:24:52.865Z,92.90
2019-02-10T01:27:20.394Z,92.80
2019-02-10T01:29:47.904Z,93.10
2019-02-10T01:32:15.404Z,92.80
2019-02-10T01:34:42.946Z,92.80
2019-02-10T01:37:10.538Z,93.10
2019-02-10T01:39:38.046Z,93.10
2019-02-10T01:42:05.592Z,93.00
2019-02-10T01:44:33.094Z,92.70
2019-02-10T01:47:00.648Z,93.20
2019-02-10T01:49:28.210Z,93.90
2019-02-10T01:51:55.710Z,93.50
2019-02-10T01:54:23.616Z,93.30
2019-02-10T01:56:51.188Z,93.50
2019-02-10T01:59:18.682Z,93.30
2019-02-10T02:01:46.186Z,93.20
2019-02-10T02:04:13.710Z,93.10
2019-02-10T02:06:41.214Z,93.10
2019-02-10T02:09:12.696Z,93.10
2019-02-10T02:11:40.358Z,93.10
2019-02-10T02:14:07.939Z,93.20
2019-02-10T02:16:35.434Z,93.20
2019-02-10T02:19:02.959Z,93.20
2019-02-10T02:21:30.457Z,93.20
2019-02-10T02:23:57.950Z,93.50
2019-02-10T02:26:25.504Z,93.40
2019-02-10T02:28:52.992Z,93.50
2019-02-10T02:31:20.478Z,93.30
2019-02-10T02:33:47.954Z,93.40
2019-02-10T02:36:15.453Z,93.50
2019-02-10T02:38:42.943Z,93.80
2019-02-10T02:41:10.526Z,93.60
2019-02-10T02:43:38.068Z,93.60
2019-02-10T02:46:05.545Z,93.50
2019-02-10T02:48:33.074Z,93.50
2019-02-10T02:51:00.971Z,93.80
2019-02-10T02:53:28.686Z,93.50
2019-02-10T02:55:56.218Z,93.80
2019-02-10T02:58:23.692Z,93.80
2019-02-10T03:00:51.228Z,93.70
2019-02-10T03:03:18.723Z,93.70
2019-02-10T03:05:46.226Z,93.70
2019-02-10T03:08:13.713Z,93.50
2019-02-10T03:10:41.756Z,93.50
2019-02-10T03:13:09.308Z,93.50
2019-02-10T03:15:37.520Z,93.40
2019-02-10T03:18:05.087Z,93.50
2019-02-10T03:20:32.595Z,93.50
2019-02-10T03:23:00.074Z,93.50
2019-02-10T03:25:27.622Z,93.50
2019-02-10T03:27:55.131Z,93.50
2019-02-10T03:30:22.707Z,93.50
2019-02-10T03:32:50.260Z,93.50
2019-02-10T03:35:17.752Z,93.50
2019-02-10T03:37:45.268Z,93.20
2019-02-10T03:40:12.945Z,93.30
2019-02-10T03:42:40.431Z,93.20
2019-02-10T03:45:08.534Z,93.10
2019-02-10T03:47:36.046Z,93.40
2019-02-10T03:50:03.959Z,93.20
2019-02-10T03:52:31.494Z,93.30
2019-02-10T03:54:58.970Z,93.50
2019-02-10T03:57:26.500Z,93.50
2019-02-10T03:59:54.042Z,93.50
2019-02-10T04:02:21.566Z,93.40
2019-02-10T04:04:49.065Z,93.20
2019-02-10T04:07:16.606Z,93.30
2019-02-10T04:09:44.106Z,93.40
2019-02-10T04:12:11.588Z,93.50
2019-02-10T04:14:39.128Z,93.50
2019-02-10T04:17:06.360Z,93.10
2019-02-10T04:19:33.868Z,92.90
2019-02-10T04:22:01.450Z,92.80
2019-02-10T04:24:28.950Z,92.90
2019-02-10T04:26:56.446Z,93.00
2019-02-10T04:29:23.978Z,92.90
2019-02-10T04:31:51.538Z,92.90
2019-02-10T04:34:19.075Z,92.90
2019-02-10T04:36:46.602Z,92.90
2019-02-10T04:39:14.152Z,92.60
2019-02-10T04:41:41.659Z,92.70
2019-02-10T04:44:09.146Z,92.90
2019-02-10T04:46:36.670Z,92.50
2019-02-10T04:49:04.156Z,92.40
2019-02-10T04:51:31.670Z,92.10
2019-02-10T04:53:59.420Z,92.50
2019-02-10T04:56:26.931Z,92.50
2019-02-10T04:58:54.413Z,92.40
2019-02-10T05:01:21.951Z,92.40
2019-02-10T05:03:49.430Z,92.20
2019-02-10T05:06:16.926Z,92.00
2019-02-10T05:08:44.450Z,92.20
2019-02-10T05:11:11.937Z,92.40
2019-02-10T05:13:39.442Z,92.30
2019-02-10T05:16:06.992Z,92.30
2019-02-10T05:18:34.554Z,92.20
2019-02-10T05:21:02.062Z,92.30
2019-02-10T05:23:29.603Z,92.10
2019-02-10T05:25:57.090Z,92.10
2019-02-10T05:28:24.594Z,92.30
2019-02-10T05:30:52.106Z,92.20
2019-02-10T05:33:19.611Z,92.20
2019-02-10T05:35:47.153Z,92.40
2019-02-10T05:38:14.660Z,92.40
2019-02-10T05:40:42.135Z,92.60
2019-02-10T05:43:09.675Z,92.90
2019-02-10T05:45:37.150Z,92.70
2019-02-10T05:48:04.651Z,92.60
2019-02-10T05:50:32.212Z,92.70
2019-02-10T05:52:59.700Z,92.70
2019-02-10T05:55:27.210Z,92.70
2019-02-10T05:57:54.713Z,92.80
2019-02-10T06:00:22.305Z,92.60
2019-02-10T06:02:49.846Z,92.40
2019-02-10T06:05:19.830Z,92.70
2019-02-10T06:07:47.438Z,92.90
2019-02-10T06:10:14.930Z,92.70
2019-02-10T06:12:43.144Z,92.80
2019-02-10T06:15:26.218Z,92.80
2019-02-10T06:17:58.582Z,92.60
2019-02-10T06:20:26.487Z,92.60
2019-02-10T06:22:54.796Z,92.50
2019-02-10T06:25:22.273Z,92.50
2019-02-10T06:27:50.240Z,92.40
2019-02-10T06:30:17.746Z,92.40
2019-02-10T06:32:45.550Z,92.40
2019-02-10T06:35:13.544Z,92.50
2019-02-10T06:37:41.916Z,92.40
2019-02-10T06:40:11.233Z,92.40
2019-02-10T06:42:38.731Z,92.40
2019-02-10T06:45:08.999Z,92.40
2019-02-10T06:47:42.475Z,92.30
2019-02-10T06:50:12.368Z,92.20
2019-02-10T06:52:40.717Z,92.10
2019-02-10T06:55:10.362Z,91.90
2019-02-10T06:57:37.847Z,91.80
2019-02-10T07:00:33.298Z,91.60
2019-02-10T07:03:38.422Z,91.50
2019-02-10T07:06:06.884Z,91.20
2019-02-10T07:08:34.430Z,91.00
2019-02-10T07:11:01.930Z,90.80
2019-02-10T07:13:35.588Z,90.70
2019-02-10T07:16:47.336Z,90.50
2019-02-10T07:19:51.388Z,90.00
2019-02-10T07:22:55.258Z,89.40
2019-02-10T07:25:44.504Z,89.60
2019-02-10T07:28:52.570Z,89.50
2019-02-10T07:31:26.092Z,89.20
2019-02-10T07:34:37.358Z,89.30
2019-02-10T07:37:15.554Z,89.10
2019-02-10T07:40:27.306Z,88.60
2019-02-10T07:43:37.180Z,86.50
2019-02-10T07:46:46.955Z,85.40
2019-02-10T07:49:52.450Z,83.80
2019-02-10T07:52:34.528Z,83.00
2019-02-10T07:55:17.340Z,82.00
2019-02-10T07:57:58.734Z,79.90
2019-02-10T08:01:09.826Z,79.00
2019-02-10T08:04:07.218Z,78.30
2019-02-10T08:07:19.637Z,76.60
2019-02-10T08:10:35.039Z,75.70
2019-02-10T08:13:44.555Z,74.90
2019-02-10T08:17:00.056Z,75.20
2019-02-10T08:20:12.354Z,74.70
2019-02-10T08:23:14.323Z,74.10
2019-02-10T08:25:57.474Z,72.60
2019-02-10T08:28:47.460Z,70.80
2019-02-10T08:31:54.370Z,70.70
2019-02-10T08:35:03.250Z,67.40
2019-02-10T08:38:08.491Z,65.70
2019-02-10T08:41:15.240Z,65.20
2019-02-10T08:44:14.429Z,65.50
2019-02-10T08:46:54.633Z,67.70
2019-02-10T08:49:51.853Z,69.20
2019-02-10T08:52:30.273Z,70.60
2019-02-10T08:54:58.989Z,71.20
2019-02-10T08:57:26.518Z,71.60
2019-02-10T08:59:54.040Z,72.10
2019-02-10T09:02:21.561Z,72.10
2019-02-10T09:04:49.089Z,72.70
2019-02-10T09:07:16.591Z,72.30
2019-02-10T09:09:44.163Z,72.40
2019-02-10T09:12:13.018Z,72.30
2019-02-10T09:14:40.537Z,72.30
2019-02-10T09:17:08.127Z,71.60
2019-02-10T09:19:35.690Z,71.80
2019-02-10T09:22:03.493Z,72.10
2019-02-10T09:24:31.058Z,72.70
2019-02-10T09:26:58.585Z,71.40
2019-02-10T09:29:26.143Z,71.40
2019-02-10T09:31:53.670Z,71.80
2019-02-10T09:34:21.221Z,71.00
2019-02-10T09:36:48.775Z,70.10
2019-02-10T09:39:16.305Z,70.30
2019-02-10T09:41:46.130Z,70.70
2019-02-10T09:44:13.717Z,70.40
2019-02-10T09:46:41.241Z,70.00
2019-02-10T09:49:08.777Z,69.30
2019-02-10T09:51:36.307Z,69.60
2019-02-10T09:54:04.039Z,69.40
2019-02-10T09:56:31.551Z,69.10
2019-02-10T09:58:59.065Z,69.10
2019-02-10T10:01:26.608Z,69.40
2019-02-10T10:03:54.129Z,69.00
2019-02-10T10:06:22.710Z,68.90
2019-02-10T10:08:50.374Z,67.80
2019-02-10T10:11:17.868Z,67.20
2019-02-10T10:13:45.469Z,67.60
2019-02-10T10:16:12.994Z,67.30
2019-02-10T10:18:41.003Z,67.50
2019-02-10T10:21:08.571Z,67.50
2019-02-10T10:23:36.431Z,67.20
2019-02-10T10:26:04.610Z,67.20
2019-02-10T10:28:32.171Z,67.30
2019-02-10T10:30:59.675Z,67.40
2019-02-10T10:33:27.265Z,67.60
2019-02-10T10:35:54.757Z,67.40
2019-02-10T10:38:22.275Z,67.20
2019-02-10T10:40:49.843Z,67.20
2019-02-10T10:43:17.420Z,67.40
2019-02-10T10:45:44.936Z,68.00
2019-02-10T10:48:12.435Z,68.20
2019-02-10T10:50:39.953Z,67.90
2019-02-10T10:53:07.695Z,67.70
2019-02-10T10:55:35.216Z,66.60
2019-02-10T10:58:02.756Z,67.10
2019-02-10T11:00:30.249Z,66.60
2019-02-10T11:02:57.787Z,66.20
2019-02-10T11:05:25.353Z,66.20
2019-02-10T11:07:52.903Z,65.80
2019-02-10T11:10:20.458Z,65.50
2019-02-10T11:12:48.027Z,64.90
2019-02-10T11:15:15.564Z,64.50
2019-02-10T11:17:43.097Z,64.40
2019-02-10T11:20:10.769Z,64.30
2019-02-10T11:22:38.990Z,64.30
2019-02-10T11:25:06.863Z,64.20
2019-02-10T11:27:34.471Z,64.20
2019-02-10T11:30:03.900Z,64.40
2019-02-10T11:32:31.363Z,64.90
2019-02-10T11:34:58.946Z,64.80
2019-02-10T11:37:27.094Z,64.50
2019-02-10T11:39:54.961Z,64.90
2019-02-10T11:42:30.221Z,64.70
2019-02-10T11:44:57.954Z,65.00
2019-02-10T11:47:25.448Z,64.20
2019-02-10T11:49:56.721Z,64.80
2019-02-10T11:52:25.029Z,65.30
2019-02-10T11:54:52.587Z,64.90
2019-02-10T11:57:20.183Z,65.20
2019-02-10T11:59:47.709Z,65.40
2019-02-10T12:02:15.270Z,65.60
2019-02-10T12:04:42.918Z,65.00
2019-02-10T12:07:10.455Z,64.70
2019-02-10T12:09:37.982Z,64.40
2019-02-10T12:12:05.677Z,64.50
2019-02-10T12:14:33.250Z,65.40
2019-02-10T12:17:01.956Z,63.50
2019-02-10T12:19:29.557Z,62.90
2019-02-10T12:21:57.127Z,62.70
2019-02-10T12:24:24.654Z,62.30
2019-02-10T12:26:52.282Z,62.20
2019-02-10T12:29:23.167Z,62.20
2019-02-10T12:31:50.723Z,62.00
2019-02-10T12:34:18.415Z,62.00
2019-02-10T12:36:45.874Z,62.00
2019-02-10T12:39:13.409Z,62.70
2019-02-10T12:41:40.979Z,63.60
2019-02-10T12:44:08.605Z,63.90
2019-02-10T12:46:39.635Z,64.00
2019-02-10T12:49:08.499Z,63.80
2019-02-10T12:51:36.037Z,62.30
2019-02-10T12:54:03.720Z,61.80
2019-02-10T12:56:31.289Z,61.50
2019-02-10T12:58:58.811Z,61.20
2019-02-10T13:01:26.398Z,60.80
2019-02-10T13:03:53.959Z,60.90
2019-02-10T13:06:21.980Z,61.30
2019-02-10T13:08:49.634Z,61.00
2019-02-10T13:11:17.202Z,60.90
2019-02-10T13:13:44.733Z,60.50
2019-02-10T13:16:12.287Z,60.40
2019-02-10T13:18:39.959Z,59.60
2019-02-10T13:21:08.466Z,60.00
2019-02-10T13:23:36.003Z,59.90
2019-02-10T13:26:03.561Z,60.00
2019-02-10T13:28:31.145Z,60.20
2019-02-10T13:30:58.753Z,60.60
2019-02-10T13:33:26.313Z,61.00
2019-02-10T13:35:53.991Z,60.60
2019-02-10T13:38:21.925Z,61.30
2019-02-10T13:40:49.539Z,61.70
2019-02-10T13:43:17.159Z,61.30
2019-02-10T13:45:45.064Z,61.50
2019-02-10T13:48:12.647Z,61.70
2019-02-10T13:50:40.300Z,62.90
2019-02-10T13:53:09.067Z,62.40
2019-02-10T13:55:36.762Z,62.10
2019-02-10T13:58:04.339Z,63.40
2019-02-10T14:00:32.006Z,63.50
2019-02-10T14:02:59.543Z,63.60
2019-02-10T14:05:27.092Z,63.90
2019-02-10T14:07:54.791Z,64.90
2019-02-10T14:10:25.629Z,65.20
2019-02-10T14:12:51.714Z,64.20
2019-02-10T14:15:19.524Z,64.30
2019-02-10T14:17:47.059Z,64.30
2019-02-10T14:20:15.053Z,64.20
2019-02-10T14:22:42.604Z,64.20
2019-02-10T14:25:10.175Z,64.20
2019-02-10T14:27:37.721Z,64.20
2019-02-10T14:30:05.955Z,64.20
2019-02-10T14:32:33.529Z,64.20
2019-02-10T14:35:01.097Z,64.70
2019-02-10T14:37:28.621Z,65.20
2019-02-10T14:39:56.197Z,65.90
2019-02-10T14:42:24.119Z,66.30
2019-02-10T14:44:51.749Z,67.40
2019-02-10T14:47:19.400Z,66.50
2019-02-10T14:49:46.957Z,66.70
2019-02-10T14:52:14.532Z,66.70
2019-02-10T14:54:42.066Z,66.80
2019-02-10T14:57:09.671Z,66.80
2019-02-10T14:59:37.165Z,67.00
2019-02-10T15:02:04.683Z,67.00
2019-02-10T15:04:32.237Z,67.50
2019-02-10T15:06:59.748Z,67.60
2019-02-10T15:09:27.340Z,67.70
2019-02-10T15:11:54.905Z,67.90
2019-02-10T15:14:22.544Z,68.00
2019-02-10T15:16:50.133Z,68.60
2019-02-10T15:19:17.657Z,68.50
2019-02-10T15:21:45.304Z,68.50
2019-02-10T15:24:20.847Z,68.00
2019-02-10T15:26:48.495Z,68.40
2019-02-10T15:29:16.052Z,68.10
2019-02-10T15:31:46.908Z,67.90
2019-02-10T15:34:15.755Z,68.00
2019-02-10T15:36:43.357Z,68.40
2019-02-10T15:39:15.159Z,68.50
2019-02-10T15:41:43.398Z,68.70
2019-02-10T15:44:11.403Z,69.00
2019-02-10T15:46:38.931Z,69.30
2019-02-10T15:49:06.428Z,69.40
2019-02-10T15:51:37.221Z,69.50
2019-02-10T15:54:03.623Z,69.60
2019-02-10T15:56:31.214Z,69.70
2019-02-10T15:58:58.844Z,70.00
2019-02-10T16:01:26.719Z,70.00
2019-02-10T16:03:54.298Z,70.60
2019-02-10T16:06:21.833Z,70.90
2019-02-10T16:08:49.354Z,70.90
2019-02-10T16:11:16.915Z,71.10
2019-02-10T16:13:44.412Z,71.80
2019-02-10T16:16:11.938Z,71.60
2019-02-10T16:18:39.474Z,71.70
2019-02-10T16:21:07.027Z,71.70
2019-02-10T16:23:34.539Z,71.70
2019-02-10T16:26:02.183Z,71.20
2019-02-10T16:28:30.089Z,71.30
2019-02-10T16:30:57.644Z,71.40
2019-02-10T16:33:25.153Z,71.60
2019-02-10T16:35:52.739Z,71.70
2019-02-10T16:38:20.233Z,71.10
2019-02-10T16:40:47.745Z,72.10
2019-02-10T16:43:15.282Z,71.50
2019-02-10T16:45:43.130Z,71.40
2019-02-10T16:48:10.733Z,71.60
2019-02-10T16:50:38.289Z,71.60
2019-02-10T16:53:05.824Z,71.40
2019-02-10T16:55:33.327Z,71.40
2019-02-10T16:58:00.870Z,71.40
2019-02-10T17:00:28.455Z,71.40
2019-02-10T17:02:55.984Z,71.60
2019-02-10T17:05:23.538Z,71.50
2019-02-10T17:07:51.064Z,71.50
2019-02-10T17:10:18.629Z,71.60
2019-02-10T17:12:46.120Z,71.60
2019-02-10T17:15:13.877Z,71.60
2019-02-10T17:17:41.510Z,72.00
2019-02-10T17:20:09.611Z,72.30
2019-02-10T17:22:37.247Z,72.70
2019-02-10T17:25:06.083Z,72.80
2019-02-10T17:27:33.634Z,72.80
2019-02-10T17:30:01.783Z,72.90
2019-02-10T17:32:29.362Z,72.80
2019-02-10T17:34:56.966Z,72.70
2019-02-10T17:37:24.609Z,72.50
2019-02-10T17:39:52.162Z,72.00
2019-02-10T17:42:19.732Z,72.30
2019-02-10T17:44:47.447Z,71.90
2019-02-10T17:47:14.966Z,71.40
2019-02-10T17:49:42.502Z,71.30
2019-02-10T17:52:10.119Z,71.30
2019-02-10T17:54:37.596Z,71.30
2019-02-10T17:57:05.241Z,71.30
2019-02-10T17:59:32.731Z,71.10
2019-02-10T18:02:00.262Z,70.80
2019-02-10T18:04:27.836Z,70.60
2019-02-10T18:06:55.407Z,71.30
2019-02-10T18:09:22.917Z,70.80
2019-02-10T18:11:50.478Z,70.40
2019-02-10T18:14:30.159Z,70.80
2019-02-10T18:17:04.123Z,71.10
2019-02-10T18:19:46.617Z,70.70
2019-02-10T18:22:36.476Z,70.70
2019-02-10T18:25:14.536Z,70.70
2019-02-10T18:28:02.879Z,70.80
2019-02-10T18:31:07.971Z,70.90
2019-02-10T18:34:00.908Z,71.40
2019-02-10T18:37:06.554Z,71.70
2019-02-10T18:39:53.605Z,71.50
2019-02-10T18:42:46.751Z,71.90
2019-02-10T18:45:40.136Z,72.20
2019-02-10T18:48:15.686Z,72.10
2019-02-10T18:51:02.775Z,72.30
2019-02-10T18:53:50.323Z,72.30
2019-02-10T18:56:29.212Z,71.60
2019-02-10T18:59:28.318Z,71.70
2019-02-10T19:02:15.980Z,71.20
2019-02-10T19:05:05.854Z,71.40
2019-02-10T19:07:54.348Z,71.10
2019-02-10T19:10:50.166Z,71.20
2019-02-10T19:13:42.958Z,70.70
2019-02-10T19:16:19.154Z,70.70
2019-02-10T19:19:06.300Z,70.70
2019-02-10T19:21:53.815Z,70.50
2019-02-10T19:24:27.458Z,71.00
2019-02-10T19:27:03.875Z,71.20
2019-02-10T19:29:46.482Z,71.10
2019-02-10T19:32:27.690Z,71.20
2019-02-10T19:35:13.172Z,71.10
2019-02-10T19:38:15.669Z,71.60
2019-02-10T19:40:55.996Z,71.60
2019-02-10T19:43:41.800Z,71.70
2019-02-10T19:46:34.881Z,71.90
2019-02-10T19:49:21.882Z,71.80
2019-02-10T19:51:57.288Z,71.80
2019-02-10T19:54:56.449Z,71.90
2019-02-10T19:57:49.134Z,71.90
2019-02-10T20:00:38.018Z,71.70
2019-02-10T20:03:25.103Z,72.00
2019-02-10T20:06:16.899Z,71.80
2019-02-10T20:09:16.102Z,71.90
2019-02-10T20:11:53.976Z,71.80
2019-02-10T20:14:40.993Z,71.90
2019-02-10T20:17:33.350Z,71.50
2019-02-10T20:20:29.244Z,71.50
2019-02-10T20:23:19.899Z,71.60
2019-02-10T20:26:13.158Z,72.00
2019-02-10T20:29:00.198Z,72.00
2019-02-10T20:31:46.378Z,72.10
2019-02-10T20:34:24.044Z,72.30
2019-02-10T20:37:09.826Z,72.30
2019-02-10T20:39:47.740Z,72.60
2019-02-10T20:42:22.714Z,72.70
2019-02-10T20:45:12.936Z,72.80
2019-02-10T20:48:02.590Z,72.60
2019-02-10T20:51:07.700Z,73.00
2019-02-10T20:53:47.666Z,73.10
2019-02-10T20:56:23.078Z,73.30
2019-02-10T20:59:12.902Z,73.30
2019-02-10T21:01:46.874Z,73.50
2019-02-10T21:04:36.188Z,73.40
2019-02-10T21:07:12.582Z,73.30
2019-02-10T21:10:11.598Z,73.50
2019-02-10T21:12:53.500Z,73.50
2019-02-10T21:15:55.960Z,73.50
2019-02-10T21:18:33.320Z,73.80
2019-02-10T21:21:19.180Z,73.80
2019-02-10T21:24:09.238Z,74.00
2019-02-10T21:26:58.976Z,74.60
2019-02-10T21:29:42.887Z,74.10
2019-02-10T21:32:32.666Z,74.30
2019-02-10T21:35:08.720Z,74.30
2019-02-10T21:37:51.162Z,74.10
2019-02-10T21:40:36.802Z,74.10
2019-02-10T21:43:09.750Z,74.20
2019-02-10T21:45:59.569Z,74.40
2019-02-10T21:48:53.435Z,74.40
2019-02-10T21:51:22.958Z,74.50
2019-02-10T21:53:50.486Z,74.60
2019-02-10T21:56:18.022Z,74.80
2019-02-10T21:58:45.606Z,75.60
2019-02-10T22:01:13.085Z,74.70
2019-02-10T22:03:45.760Z,74.90
2019-02-10T22:06:13.414Z,74.80
2019-02-10T22:08:41.162Z,75.00
2019-02-10T22:11:08.885Z,75.30
2019-02-10T22:13:36.660Z,74.90
2019-02-10T22:16:04.152Z,74.90
2019-02-10T22:18:31.678Z,75.60
2019-02-10T22:20:59.352Z,74.90
2019-02-10T22:23:26.886Z,75.50
2019-02-10T22:25:54.414Z,75.60
2019-02-10T22:28:21.938Z,75.60
2019-02-10T22:30:49.729Z,76.10
2019-02-10T22:33:17.392Z,76.00
2019-02-10T22:35:44.881Z,75.90
2019-02-10T22:38:12.393Z,76.30
2019-02-10T22:40:39.972Z,76.50
2019-02-10T22:43:07.488Z,76.70
2019-02-10T22:45:35.027Z,76.40
2019-02-10T22:48:02.852Z,76.60
2019-02-10T22:50:30.302Z,76.90
2019-02-10T22:52:57.837Z,77.10
2019-02-10T22:55:28.045Z,76.80
2019-02-10T22:57:55.866Z,77.00
2019-02-10T23:00:46.138Z,77.10
2019-02-10T23:03:14.155Z,77.20
2019-02-10T23:05:42.262Z,77.10
2019-02-10T23:08:09.738Z,77.40
2019-02-10T23:10:37.298Z,77.50
2019-02-10T23:13:04.798Z,77.60
2019-02-10T23:15:32.311Z,79.00
2019-02-10T23:18:02.039Z,78.70
2019-02-10T23:20:32.338Z,79.10
2019-02-10T23:23:00.097Z,78.50
2019-02-10T23:25:27.621Z,78.70
2019-02-10T23:27:55.524Z,78.90
2019-02-10T23:30:23.307Z,79.40
2019-02-10T23:32:50.798Z,79.30
2019-02-10T23:35:18.294Z,79.30
2019-02-10T23:37:45.830Z,79.50
2019-02-10T23:40:13.330Z,79.30
2019-02-10T23:42:40.819Z,79.70
2019-02-10T23:45:08.390Z,80.00
2019-02-10T23:47:35.872Z,80.20
2019-02-10T23:50:03.614Z,80.40
2019-02-10T23:52:31.174Z,80.60
2019-02-10T23:54:58.696Z,80.30
2019-02-10T23:57:26.190Z,80.10
2019-02-10T23:59:54.614Z,80.40
